Etusivu
METAR-TAF:

METAR-TAF

Lentoasemat :

Kairouan, Tunisia

Leveyspiiri: 35-40N, Pituuspiiri: 010-06E, korkeus merenpinnasta: 60 m

Tämänhetkinen sää

Tämä raportti tehtiin 52 minuuttia sitten, kello 04.00 UTC
Tuuli 4 kn pohjoisesta, vaihdellen pohjoisen/luoteen ja idän välillä
Lämpötila 18°C
Kosteus 83%
Ilmanpaine 1014 hPa
Näkyvyys: 8000 m
Muutamia pilviä 2300 ft:n korkeudessa

METAR: DTTK 310400Z 01004KT 330V090 8000 FEW023 18/15 Q1014

Aika: 05:52 (04:52 UTC)


TAF: puuttuu

Säähavainnot ja -ennusteet yli 4000 lentoasemalta (METAR- ja TAF-raportit).

Käytössä olevat sääasemat on merkitty karttaan keltaisilla ja punaisilla pisteillä.

Aseta hiiri pisteen päälle nähdäksesi sääaseman nimen.

Klikkaa sitten nähdäksesi säähavainnot ja -ennusteet.

Kartan vaihtaminen: klikkaa mustalla rastilla varustettuja vihreitä pisteitä, niin voit zoomata sisään; viivalla varustettua vihreää pistettä, niin voit zoomata ulos tai vihreitä nuolia, niin pääset viereisille kartoille.


METAR-TAF: